Time;durP1;ratioP1;P1;durP2;ratioP2;P2;SDS_P1;SDS_P2;PMS_P1;PMS_P2;Temp;Humidity;BMP_temperature;BMP_pressure;BME280_temperature;BME280_humidity;BME280_pressure;Samples;Min_cycle;Max_cycle;Signal;HPM_P1;HPM_P2
2021/05/15 00:04:22;;;;;;;8.38;5.90;;;;;;;15.38;100.00;98380.64;4302915;81;28539;-84
2021/05/15 00:10:24;;;;;;;8.70;5.60;;;;;;;15.43;100.00;98387.92;4323283;81;28499;-83
2021/05/15 00:16:25;;;;;;;7.83;5.35;;;;;;;15.45;100.00;98381.68;4321517;81;28521;-84
2021/05/15 00:22:26;;;;;;;8.73;6.40;;;;;;;15.40;100.00;98385.78;4316132;81;28608;-83
2021/05/15 00:28:29;;;;;;;10.20;6.95;;;;;;;15.34;100.00;98386.36;4329408;81;28494;-83
2021/05/15 00:34:30;;;;;;;8.43;6.37;;;;;;;15.08;100.00;98385.10;4308471;81;28488;-84
2021/05/15 00:40:32;;;;;;;8.23;6.03;;;;;;;14.83;100.00;98388.70;4351118;81;28525;-84
2021/05/15 00:46:33;;;;;;;11.18;6.60;;;;;;;14.84;100.00;98394.38;4329693;81;28527;-83
2021/05/15 00:52:35;;;;;;;10.05;6.47;;;;;;;14.80;100.00;98383.32;4348348;81;28948;-83
2021/05/15 00:58:40;;;;;;;9.10;6.17;;;;;;;14.73;100.00;98390.91;4319221;81;28568;-84
2021/05/15 01:04:41;;;;;;;10.05;6.80;;;;;;;14.80;100.00;98386.56;4157935;83;28579;-83
2021/05/15 01:10:43;;;;;;;9.50;6.60;;;;;;;14.74;100.00;98389.29;4142657;84;28595;-83
2021/05/15 01:16:44;;;;;;;11.75;6.62;;;;;;;14.63;100.00;98388.46;4197520;84;28592;-83
2021/05/15 01:22:45;;;;;;;12.23;7.17;;;;;;;14.68;100.00;98388.99;4204654;84;28515;-82
2021/05/15 01:28:51;;;;;;;9.48;7.33;;;;;;;14.64;100.00;98396.05;4177824;82;28520;-83
2021/05/15 01:34:53;;;;;;;10.43;7.73;;;;;;;14.42;100.00;98394.99;4185482;84;28550;-84
2021/05/15 01:40:56;;;;;;;10.08;6.92;;;;;;;14.40;100.00;98399.31;4165025;84;28628;-84
2021/05/15 01:46:57;;;;;;;8.85;6.58;;;;;;;14.38;100.00;98396.07;4164877;84;28483;-84
2021/05/15 01:52:58;;;;;;;9.55;6.58;;;;;;;14.27;100.00;98395.28;4183348;84;28536;-84
2021/05/15 01:58:59;;;;;;;10.85;7.10;;;;;;;14.57;100.00;98398.22;4241609;83;28512;-85
2021/05/15 02:05:00;;;;;;;11.10;7.78;;;;;;;14.41;100.00;98392.02;4193823;84;28562;-84
2021/05/15 02:11:03;;;;;;;10.82;7.20;;;;;;;14.45;100.00;98391.73;4206326;82;28556;-84
2021/05/15 02:17:04;;;;;;;9.43;6.45;;;;;;;14.37;100.00;98399.86;4165494;84;28512;-84
2021/05/15 02:23:07;;;;;;;8.38;6.22;;;;;;;14.34;100.00;98390.39;4205015;84;28481;-85
2021/05/15 02:29:08;;;;;;;9.50;6.47;;;;;;;14.31;100.00;98395.00;4205412;84;28537;-82
2021/05/15 02:35:10;;;;;;;8.40;6.33;;;;;;;14.28;100.00;98384.73;4165643;84;28511;-83
2021/05/15 02:41:11;;;;;;;10.13;6.45;;;;;;;14.29;100.00;98390.94;4165743;84;28535;-84
2021/05/15 02:47:13;;;;;;;7.78;5.80;;;;;;;14.16;100.00;98399.05;4185421;84;28517;-83
2021/05/15 02:53:15;;;;;;;10.63;5.78;;;;;;;14.18;100.00;98397.70;4165512;84;28584;-83
2021/05/15 02:59:16;;;;;;;11.03;5.78;;;;;;;13.98;100.00;98393.64;4166720;84;28532;-82
2021/05/15 03:05:22;;;;;;;8.60;5.70;;;;;;;14.12;100.00;98403.38;4165645;84;28559;-85
2021/05/15 03:11:23;;;;;;;7.08;5.28;;;;;;;13.93;100.00;98402.03;4185264;84;28595;-84
2021/05/15 03:17:24;;;;;;;7.78;4.42;;;;;;;13.90;100.00;98400.40;4165400;84;28497;-83
2021/05/15 03:23:25;;;;;;;7.50;5.40;;;;;;;13.84;100.00;98405.52;4165105;84;28519;-82
2021/05/15 03:29:27;;;;;;;5.55;4.45;;;;;;;13.96;100.00;98403.91;4165301;84;28568;-84
2021/05/15 03:35:31;;;;;;;8.58;5.17;;;;;;;13.98;100.00;98406.63;4165734;84;28554;-82
2021/05/15 03:41:32;;;;;;;6.03;4.28;;;;;;;14.23;100.00;98406.35;4165301;84;28509;-82
2021/05/15 03:47:33;;;;;;;6.78;4.42;;;;;;;14.34;100.00;98405.82;4165282;84;28543;-82
2021/05/15 03:53:35;;;;;;;6.78;4.47;;;;;;;14.74;100.00;98405.53;4165186;84;28999;-82
2021/05/15 03:59:36;;;;;;;8.63;4.72;;;;;;;15.05;100.00;98409.50;4178952;84;28559;-83
2021/05/15 04:05:37;;;;;;;8.73;5.37;;;;;;;15.50;100.00;98416.88;4191153;83;28477;-83
2021/05/15 04:11:40;;;;;;;8.43;4.62;;;;;;;16.00;100.00;98421.50;4165008;84;28539;-83
2021/05/15 04:17:41;;;;;;;7.50;4.15;;;;;;;16.27;100.00;98416.12;4171772;84;28565;-84
2021/05/15 04:23:42;;;;;;;8.03;3.98;;;;;;;16.42;100.00;98418.72;4178216;84;28521;-83
2021/05/15 04:29:44;;;;;;;5.15;3.35;;;;;;;17.02;100.00;98429.54;4165217;84;28607;-84
2021/05/15 04:35:46;;;;;;;5.28;3.50;;;;;;;17.07;100.00;98433.57;4165548;84;28503;-83
2021/05/15 04:41:47;;;;;;;5.28;3.35;;;;;;;17.08;100.00;98436.55;4164972;84;28536;-83
2021/05/15 04:47:49;;;;;;;5.95;4.22;;;;;;;17.02;100.00;98448.02;4165474;84;28570;-84
2021/05/15 04:53:50;;;;;;;6.20;3.70;;;;;;;16.76;100.00;98451.52;4186379;84;28524;-86
2021/05/15 04:59:51;;;;;;;5.67;2.70;;;;;;;16.77;100.00;98452.59;4188484;84;28516;-85
2021/05/15 05:05:53;;;;;;;5.60;3.35;;;;;;;16.92;100.00;98453.52;4165343;84;28574;-84
2021/05/15 05:11:54;;;;;;;6.08;3.80;;;;;;;17.03;100.00;98455.63;4197063;83;28579;-84
2021/05/15 05:17:55;;;;;;;8.03;4.58;;;;;;;17.14;100.00;98459.84;4242781;82;28493;-81
2021/05/15 05:23:56;;;;;;;9.58;5.28;;;;;;;17.13;100.00;98466.38;4251363;82;28486;-84
2021/05/15 05:29:58;;;;;;;8.78;4.40;;;;;;;17.27;99.23;98462.39;4267483;82;28632;-84
2021/05/15 05:36:00;;;;;;;5.33;3.70;;;;;;;17.22;96.60;98465.97;4254962;82;28562;-84
2021/05/15 05:42:01;;;;;;;5.65;3.52;;;;;;;17.26;93.24;98468.39;4255058;82;28658;-85
2021/05/15 05:48:03;;;;;;;5.30;3.60;;;;;;;17.22;96.71;98476.84;4265287;82;28530;-83
2021/05/15 05:54:05;;;;;;;4.37;3.05;;;;;;;17.40;93.39;98479.91;4254983;82;28524;-84
2021/05/15 06:00:09;;;;;;;5.12;3.25;;;;;;;17.38;94.40;98481.55;4273089;82;28489;-83
2021/05/15 06:06:11;;;;;;;4.75;2.65;;;;;;;17.52;85.86;98486.30;4252759;82;28600;-84
2021/05/15 06:12:14;;;;;;;2.45;2.00;;;;;;;17.53;85.27;98488.70;4276123;82;28489;-83
2021/05/15 06:18:15;;;;;;;6.90;2.47;;;;;;;17.31;77.92;98497.94;4277347;82;28501;-83
2021/05/15 06:24:16;;;;;;;4.00;2.58;;;;;;;17.76;84.32;98501.22;4265516;82;28483;-83
2021/05/15 06:30:19;;;;;;;3.87;2.90;;;;;;;17.86;81.60;98498.08;4252409;82;28507;-84
2021/05/15 06:36:20;;;;;;;4.95;3.17;;;;;;;17.98;79.60;98496.55;4251951;82;28547;-83
2021/05/15 06:42:22;;;;;;;4.00;3.50;;;;;;;17.82;79.32;98495.16;4267229;82;28550;-85
2021/05/15 06:48:23;;;;;;;4.60;3.47;;;;;;;17.98;79.28;98496.55;4259978;82;28609;-83
2021/05/15 06:54:24;;;;;;;4.83;3.60;;;;;;;17.96;75.11;98490.60;4261733;82;28555;-84
2021/05/15 07:00:26;;;;;;;5.15;3.72;;;;;;;18.10;77.72;98496.69;4268638;82;28563;-85
2021/05/15 07:06:28;;;;;;;5.33;3.17;;;;;;;18.17;75.09;98490.34;4255522;82;28537;-84
2021/05/15 07:12:29;;;;;;;5.20;2.83;;;;;;;18.14;72.30;98481.95;4241991;82;28495;-84
2021/05/15 07:18:30;;;;;;;3.95;2.83;;;;;;;18.21;69.71;98481.83;4191070;83;28498;-89
2021/05/15 07:24:32;;;;;;;4.03;2.83;;;;;;;18.00;68.89;98486.75;4175217;83;28519;-86
2021/05/15 07:30:33;;;;;;;4.45;2.60;;;;;;;18.10;69.10;98481.73;4177398;83;28568;-83
2021/05/15 07:36:35;;;;;;;4.47;2.20;;;;;;;18.56;67.51;98474.75;4184503;83;28526;-83
2021/05/15 07:42:36;;;;;;;3.10;2.52;;;;;;;19.13;65.67;98481.97;4199899;83;28576;-83
2021/05/15 07:48:38;;;;;;;3.90;2.60;;;;;;;19.35;64.54;98472.28;4189808;84;28533;-84
2021/05/15 07:54:40;;;;;;;4.15;2.37;;;;;;;19.50;61.36;98476.04;4199133;84;28591;-84
2021/05/15 08:00:41;;;;;;;3.58;2.50;;;;;;;19.93;56.75;98474.08;4181402;84;28501;-85
2021/05/15 08:06:42;;;;;;;4.40;3.22;;;;;;;20.31;58.62;98477.84;4199887;83;28531;-85
2021/05/15 08:12:43;;;;;;;4.67;2.90;;;;;;;20.23;57.70;98484.04;4188099;82;28513;-85
2021/05/15 08:18:45;;;;;;;4.00;2.80;;;;;;;20.25;56.63;98487.83;4187013;84;28491;-85
2021/05/15 08:24:46;;;;;;;4.62;2.50;;;;;;;20.69;55.96;98478.02;4184679;84;28551;-84
2021/05/15 08:30:48;;;;;;;3.15;2.12;;;;;;;20.99;50.80;98486.56;4185502;84;28548;-83
2021/05/15 08:36:51;;;;;;;3.20;1.87;;;;;;;21.33;53.36;98479.38;4192742;84;28569;-85
2021/05/15 08:42:55;;;;;;;2.87;2.08;;;;;;;20.78;49.16;98496.38;4176731;83;28543;-84
2021/05/15 08:49:02;;;;;;;2.47;2.27;;;;;;;21.12;50.03;98486.22;4212057;84;28493;-86
2021/05/15 08:55:06;;;;;;;2.90;2.35;;;;;;;21.29;48.03;98494.23;4189487;83;28548;-86
2021/05/15 09:01:12;;;;;;;3.85;2.37;;;;;;;20.32;52.78;98499.14;4182148;83;28531;-86
2021/05/15 09:07:13;;;;;;;3.27;2.20;;;;;;;21.57;52.08;98490.72;4216279;82;28523;-85
2021/05/15 09:13:27;;;;;;;3.25;2.22;;;;;;;21.33;49.03;98495.77;4234075;82;28560;-84
2021/05/15 09:19:30;;;;;;;3.22;2.27;;;;;;;20.53;51.57;98504.11;4251100;82;28497;-86
2021/05/15 09:25:33;;;;;;;4.75;2.50;;;;;;;20.70;51.00;98485.66;4252070;82;28550;-85
2021/05/15 09:31:42;;;;;;;4.70;2.15;;;;;;;20.74;53.08;98482.54;4339633;81;28597;-85
2021/05/15 09:37:43;;;;;;;3.37;2.30;;;;;;;20.35;50.87;98484.86;4326973;80;28515;-83
2021/05/15 09:43:51;;;;;;;2.80;2.40;;;;;;;20.72;51.52;98486.14;4341275;80;28500;-85
2021/05/15 09:49:54;;;;;;;3.40;2.50;;;;;;;20.73;50.89;98485.02;4357106;80;28473;-86
2021/05/15 09:55:56;;;;;;;4.30;2.10;;;;;;;20.69;49.89;98484.05;4201170;83;28502;-86
2021/05/15 10:02:04;;;;;;;2.80;2.27;;;;;;;20.82;48.62;98479.08;4172256;83;28570;-84
2021/05/15 10:08:07;;;;;;;4.58;3.20;;;;;;;21.27;48.72;98475.98;4195973;84;28539;-85
2021/05/15 10:14:08;;;;;;;4.87;2.90;;;;;;;21.16;47.87;98481.73;4189424;84;28514;-85
2021/05/15 10:20:11;;;;;;;4.20;2.60;;;;;;;21.86;46.49;98470.77;4171363;84;28672;-85
2021/05/15 10:26:20;;;;;;;6.30;3.35;;;;;;;22.67;44.96;98462.20;4278407;81;28548;-85
2021/05/15 10:32:24;;;;;;;4.05;2.65;;;;;;;22.87;44.87;98451.67;4336943;80;28553;-84
2021/05/15 10:38:32;;;;;;;2.98;1.80;;;;;;;23.44;44.56;98445.55;4339325;80;28562;-85
2021/05/15 10:44:42;;;;;;;4.87;2.20;;;;;;;23.79;42.67;98442.00;4204325;82;28609;-85
2021/05/15 10:50:51;;;;;;;3.83;2.52;;;;;;;23.43;43.20;98442.02;4259912;83;28569;-84
2021/05/15 10:57:01;;;;;;;4.17;2.50;;;;;;;22.57;43.49;98444.16;4202514;82;28560;-84
2021/05/15 11:03:03;;;;;;;2.42;1.70;;;;;;;23.26;42.14;98435.45;4339774;80;28566;-84
2021/05/15 11:09:07;;;;;;;2.00;1.80;;;;;;;22.11;42.43;98429.47;4326187;81;28493;-86
2021/05/15 11:15:17;;;;;;;3.47;1.90;;;;;;;22.96;41.79;98420.91;4331999;80;28596;-85
2021/05/15 11:21:18;;;;;;;2.35;1.77;;;;;;;23.48;42.11;98413.00;4320071;80;28523;-82
2021/05/15 11:27:21;;;;;;;4.42;1.60;;;;;;;23.36;39.88;98410.97;4193429;83;28571;-85
2021/05/15 11:33:28;;;;;;;2.45;1.95;;;;;;;24.02;39.71;98412.83;4168335;83;28507;-85
2021/05/15 11:39:29;;;;;;;2.35;1.70;;;;;;;24.28;37.70;98413.77;4180465;84;28509;-86
2021/05/15 11:45:33;;;;;;;1.98;1.70;;;;;;;23.85;38.69;98406.92;4190176;84;28527;-84
2021/05/15 11:51:34;;;;;;;2.15;1.85;;;;;;;24.34;38.15;98402.81;4201599;83;28631;-86
2021/05/15 11:57:36;;;;;;;3.98;2.33;;;;;;;24.28;37.48;98400.84;4182974;84;28488;-86
2021/05/15 12:03:37;;;;;;;2.15;1.60;;;;;;;23.84;38.37;98408.06;4203183;84;28626;-85
2021/05/15 12:09:38;;;;;;;2.80;1.50;;;;;;;24.54;38.55;98387.39;4184253;83;28459;-86
2021/05/15 12:15:48;;;;;;;2.15;1.50;;;;;;;24.75;38.31;98387.88;4198428;84;28617;-86
2021/05/15 12:22:05;;;;;;;3.77;1.70;;;;;;;25.14;37.04;98377.94;4329700;82;28480;-86
2021/05/15 12:28:19;;;;;;;3.10;1.85;;;;;;;25.73;38.41;98376.61;4319134;82;28596;-87
2021/05/15 12:34:21;;;;;;;1.55;1.42;;;;;;;25.67;36.98;98366.17;4297409;82;28530;-86
2021/05/15 12:40:24;;;;;;;1.70;1.27;;;;;;;25.45;35.69;98359.45;4318936;82;28512;-86
2021/05/15 12:46:25;;;;;;;1.60;1.50;;;;;;;25.81;35.86;98358.34;4308203;82;28478;-87
2021/05/15 12:52:27;;;;;;;9.10;3.60;;;;;;;25.87;35.76;98354.76;4321756;81;28526;-85
2021/05/15 12:58:28;;;;;;;3.95;2.52;;;;;;;26.18;36.64;98354.02;4314876;82;28471;-87
2021/05/15 13:04:30;;;;;;;2.52;1.65;;;;;;;26.19;35.56;98338.34;4311196;81;28595;-86
2021/05/15 13:10:31;;;;;;;3.95;1.60;;;;;;;25.99;34.76;98334.64;4322613;82;28601;-86
2021/05/15 13:16:33;;;;;;;4.87;2.30;;;;;;;26.61;35.48;98322.45;4296324;81;28531;-85
2021/05/15 13:22:34;;;;;;;2.20;1.60;;;;;;;26.50;35.25;98317.47;4318690;82;28473;-85
2021/05/15 13:28:38;;;;;;;4.30;2.40;;;;;;;26.06;34.36;98315.53;4317640;81;28562;-86
2021/05/15 13:34:39;;;;;;;2.10;1.70;;;;;;;26.02;37.04;98304.41;4312164;82;28579;-85
2021/05/15 13:40:40;;;;;;;1.62;1.50;;;;;;;25.90;34.67;98297.61;4305585;82;28582;-86
2021/05/15 13:46:42;;;;;;;3.05;1.72;;;;;;;25.80;34.62;98301.68;4302913;82;28501;-86
2021/05/15 13:52:44;;;;;;;2.55;2.00;;;;;;;26.00;36.11;98281.16;4305648;82;28544;-87
2021/05/15 13:58:45;;;;;;;1.92;1.75;;;;;;;26.22;34.41;98283.12;4311724;82;29181;-87
2021/05/15 14:04:47;;;;;;;2.42;1.80;;;;;;;26.23;34.95;98275.86;4305586;82;28543;-87
2021/05/15 14:10:50;;;;;;;3.15;1.62;;;;;;;26.60;34.72;98269.27;4313368;82;28508;-88
2021/05/15 14:16:51;;;;;;;2.77;1.62;;;;;;;26.06;33.54;98268.71;4340424;81;28512;-87
2021/05/15 14:22:53;;;;;;;2.10;1.70;;;;;;;25.94;32.69;98260.53;4344842;80;28514;-86
2021/05/15 14:28:54;;;;;;;2.33;2.00;;;;;;;26.27;35.74;98255.29;4332227;80;28500;-86
2021/05/15 14:34:55;;;;;;;3.02;1.47;;;;;;;26.16;35.21;98252.25;4329163;80;28571;-86
2021/05/15 14:40:56;;;;;;;2.83;2.00;;;;;;;26.17;34.85;98246.38;4331857;80;28512;-87
2021/05/15 14:46:58;;;;;;;2.22;1.95;;;;;;;26.11;35.42;98236.80;4170919;84;28597;-90
2021/05/15 14:53:00;;;;;;;3.55;1.80;;;;;;;26.34;36.21;98232.62;4197172;83;28517;-90
2021/05/15 14:59:02;;;;;;;2.15;1.90;;;;;;;26.12;36.15;98231.50;4209208;84;28544;-89
2021/05/15 15:05:05;;;;;;;2.47;1.80;;;;;;;25.64;36.16;98228.70;4202968;82;28509;-90
2021/05/15 15:11:10;;;;;;;1.98;1.77;;;;;;;25.38;37.19;98223.64;4204931;82;28577;-89
2021/05/15 15:17:11;;;;;;;2.17;1.62;;;;;;;25.13;36.32;98216.83;4191531;84;28608;-90
2021/05/15 15:23:17;;;;;;;2.02;1.80;;;;;;;25.19;36.42;98211.33;4185431;84;28495;-89
2021/05/15 15:29:16;;;;;;;3.08;1.67;;;;;;;25.22;36.43;98212.58;4185302;84;28622;-89
2021/05/15 15:35:17;;;;;;;3.67;1.87;;;;;;;25.23;36.77;98207.30;4204259;84;28494;-86
2021/05/15 15:41:19;;;;;;;3.25;2.00;;;;;;;24.94;37.58;98205.09;4178215;84;28568;-86
2021/05/15 15:47:21;;;;;;;3.25;1.87;;;;;;;24.76;37.67;98208.89;4125779;84;28575;-84
2021/05/15 15:53:25;;;;;;;3.33;2.42;;;;;;;24.15;38.21;98198.17;4193868;84;28501;-86
2021/05/15 15:59:28;;;;;;;3.47;2.10;;;;;;;23.53;39.35;98203.52;4191079;83;28548;-86
2021/05/15 16:05:30;;;;;;;3.27;1.90;;;;;;;23.77;40.22;98192.37;4218990;82;28529;-85
2021/05/15 16:11:31;;;;;;;4.35;2.15;;;;;;;23.61;42.70;98224.59;4174548;83;28610;-85
2021/05/15 16:17:33;;;;;;;2.98;2.30;;;;;;;22.76;52.70;98221.88;4171066;84;28494;-86
2021/05/15 16:23:34;;;;;;;2.95;2.08;;;;;;;22.04;62.93;98244.41;4158389;83;28520;-83
2021/05/15 16:29:37;;;;;;;3.30;2.20;;;;;;;21.26;75.83;98233.81;4174125;83;28617;-93
2021/05/15 16:35:44;;;;;;;3.15;2.00;;;;;;;20.95;74.56;98226.03;4158478;83;28517;-85
2021/05/15 16:41:43;;;;;;;2.52;2.00;;;;;;;20.65;82.59;98239.98;4172214;83;28573;-86
2021/05/15 16:47:46;;;;;;;2.25;1.70;;;;;;;19.48;89.13;98228.84;4188236;83;28479;-85
2021/05/15 16:53:50;;;;;;;1.80;1.45;;;;;;;19.41;86.70;98228.46;4179585;83;28702;-85
2021/05/15 17:21:19;;;;;;;1.25;1.15;;;;;;;19.16;100.00;98226.60;4396456;78;63291;-83
2021/05/15 17:27:17;;;;;;;1.60;1.47;;;;;;;18.47;96.78;98228.87;4365917;80;28599;-84
2021/05/15 17:33:18;;;;;;;1.65;1.42;;;;;;;18.68;96.62;98237.44;4364580;80;28483;-83
2021/05/15 17:39:20;;;;;;;3.58;1.37;;;;;;;18.95;100.00;98254.81;4350000;80;28626;-84
2021/05/15 17:45:23;;;;;;;3.80;1.65;;;;;;;18.63;100.00;98266.11;4263831;82;28534;-84
2021/05/15 17:51:25;;;;;;;2.05;1.55;;;;;;;18.21;100.00;98268.27;4210321;83;28501;-85
2021/05/15 17:57:27;;;;;;;2.70;1.60;;;;;;;18.15;100.00;98264.59;4237877;83;28488;-91
2021/05/15 18:03:29;;;;;;;2.30;1.52;;;;;;;17.09;100.00;98271.96;4222146;83;28585;-85
2021/05/15 18:09:30;;;;;;;2.40;1.42;;;;;;;17.47;100.00;98258.09;4268030;81;28523;-84
2021/05/15 18:15:32;;;;;;;2.77;1.60;;;;;;;16.62;100.00;98255.44;4252369;81;28563;-84
2021/05/15 18:21:35;;;;;;;3.15;1.80;;;;;;;17.05;100.00;98241.05;4264660;81;28529;-85
2021/05/15 18:27:37;;;;;;;3.52;2.10;;;;;;;16.79;100.00;98252.77;4250942;83;28593;-86
2021/05/15 18:33:39;;;;;;;3.95;1.90;;;;;;;17.32;100.00;98259.12;4265202;81;28490;-84
2021/05/15 18:39:40;;;;;;;4.08;2.22;;;;;;;17.23;100.00;98272.58;4257442;81;28561;-84
2021/05/15 18:45:41;;;;;;;4.03;2.40;;;;;;;17.07;100.00;98277.42;4196429;83;28474;-83
2021/05/15 18:51:43;;;;;;;4.97;2.40;;;;;;;17.16;100.00;98283.81;4248765;81;28503;-80
2021/05/15 18:57:46;;;;;;;4.85;2.33;;;;;;;17.43;100.00;98286.39;4237847;82;28540;-84
2021/05/15 19:03:48;;;;;;;4.50;2.60;;;;;;;16.87;100.00;98287.42;4217098;81;28515;-85
2021/05/15 19:09:49;;;;;;;7.17;3.30;;;;;;;17.07;100.00;98276.06;4227453;81;28509;-85
2021/05/15 19:15:53;;;;;;;5.17;3.17;;;;;;;17.32;100.00;98271.36;4218851;81;28507;-85
2021/05/15 19:21:56;;;;;;;5.50;3.70;;;;;;;17.12;100.00;98265.94;4255183;81;28502;-85
2021/05/15 19:27:57;;;;;;;7.33;4.03;;;;;;;16.94;100.00;98266.70;4217337;82;28514;-85
2021/05/15 19:33:58;;;;;;;7.28;4.10;;;;;;;17.03;100.00;98266.90;4241735;83;28597;-82
2021/05/15 19:40:01;;;;;;;7.40;4.62;;;;;;;17.21;100.00;98256.56;4237256;83;28566;-84
2021/05/15 19:46:02;;;;;;;6.80;4.15;;;;;;;16.78;100.00;98255.23;4268311;81;28498;-83
2021/05/15 19:52:06;;;;;;;6.42;3.95;;;;;;;16.90;100.00;98251.53;4256651;81;28594;-83
2021/05/15 19:58:07;;;;;;;7.75;4.30;;;;;;;17.17;100.00;98243.87;4270133;81;28488;-82
2021/05/15 20:04:08;;;;;;;7.30;5.15;;;;;;;16.80;100.00;98236.20;4254309;82;28580;-82
2021/05/15 20:10:10;;;;;;;6.30;4.42;;;;;;;16.79;100.00;98241.37;4270509;81;28498;-82
2021/05/15 20:16:12;;;;;;;6.58;4.22;;;;;;;16.83;100.00;98245.68;4261356;81;28535;-82
2021/05/15 20:22:13;;;;;;;7.37;5.08;;;;;;;16.25;100.00;98240.67;4262960;81;28552;-83
2021/05/15 20:28:17;;;;;;;8.80;5.95;;;;;;;16.61;100.00;98244.33;4266959;81;28605;-84
2021/05/15 20:34:19;;;;;;;8.93;5.83;;;;;;;16.20;100.00;98238.02;4262888;81;28545;-82
2021/05/15 20:40:21;;;;;;;6.95;5.00;;;;;;;16.15;100.00;98235.61;4265351;81;28595;-84
2021/05/15 20:46:22;;;;;;;7.85;5.28;;;;;;;16.48;100.00;98234.16;4260168;81;28585;-85
2021/05/15 20:52:24;;;;;;;9.25;5.67;;;;;;;16.51;100.00;98233.61;4260489;81;28541;-83
2021/05/15 20:58:25;;;;;;;7.78;5.17;;;;;;;16.25;100.00;98226.57;4256298;81;28509;-85
2021/05/15 21:04:27;;;;;;;9.73;6.22;;;;;;;16.25;100.00;98221.69;4273435;81;28516;-85
2021/05/15 21:10:30;;;;;;;10.40;6.00;;;;;;;16.32;100.00;98216.73;4255013;81;28514;-86
2021/05/15 21:16:32;;;;;;;8.85;6.22;;;;;;;16.28;100.00;98216.49;4281827;81;28497;-85
2021/05/15 21:22:35;;;;;;;8.83;6.00;;;;;;;15.83;100.00;98203.11;4257617;81;28490;-86
2021/05/15 21:28:36;;;;;;;8.15;5.50;;;;;;;15.84;100.00;98205.28;4275542;81;28474;-85
2021/05/15 21:34:38;;;;;;;7.17;5.05;;;;;;;15.83;100.00;98194.98;4258420;81;28507;-87
2021/05/15 21:40:40;;;;;;;7.83;5.67;;;;;;;15.93;100.00;98184.63;4252339;81;28487;-86
2021/05/15 21:46:42;;;;;;;7.53;6.10;;;;;;;15.70;100.00;98192.39;4261382;81;28529;-85
2021/05/15 21:52:44;;;;;;;7.33;5.25;;;;;;;15.81;100.00;98187.69;4246268;81;28565;-86
2021/05/15 21:58:45;;;;;;;6.03;4.65;;;;;;;15.89;100.00;98193.84;4240255;81;28565;-86
2021/05/15 22:04:48;;;;;;;7.47;5.05;;;;;;;15.46;100.00;98193.16;4254540;81;28515;-86
2021/05/15 22:10:58;;;;;;;7.58;5.40;;;;;;;15.61;100.00;98190.86;4242395;81;28583;-85
2021/05/15 22:16:59;;;;;;;8.23;5.58;;;;;;;15.46;100.00;98181.49;4258832;81;28527;-85
2021/05/15 22:23:01;;;;;;;8.90;6.28;;;;;;;15.51;100.00;98173.34;4259179;81;28597;-85
2021/05/15 22:29:05;;;;;;;10.03;5.35;;;;;;;15.48;100.00;98165.23;4251024;81;28574;-84
2021/05/15 22:35:08;;;;;;;7.60;5.95;;;;;;;15.55;100.00;98155.97;4261598;81;28565;-86
2021/05/15 22:41:10;;;;;;;7.55;5.42;;;;;;;15.75;100.00;98148.17;4241860;81;28493;-85
2021/05/15 22:47:11;;;;;;;8.98;5.80;;;;;;;15.50;100.00;98144.64;4249936;81;28462;-85
2021/05/15 22:53:13;;;;;;;9.15;5.90;;;;;;;15.54;100.00;98141.61;4287726;81;28562;-85
2021/05/15 22:59:15;;;;;;;8.60;5.80;;;;;;;15.61;100.00;98155.63;4248955;82;28636;-85
2021/05/15 23:05:17;;;;;;;8.70;5.92;;;;;;;15.50;100.00;98141.92;4254169;81;28564;-86
2021/05/15 23:11:18;;;;;;;7.83;5.65;;;;;;;15.41;100.00;98139.04;4234937;82;28620;-85
2021/05/15 23:17:20;;;;;;;8.68;4.90;;;;;;;15.32;100.00;98138.03;4254350;82;28471;-86
2021/05/15 23:23:21;;;;;;;7.42;5.50;;;;;;;15.25;100.00;98131.57;4201940;83;28510;-85
2021/05/15 23:29:22;;;;;;;9.40;5.70;;;;;;;15.19;100.00;98132.73;4227879;81;28474;-85
2021/05/15 23:35:26;;;;;;;8.73;5.60;;;;;;;15.18;100.00;98124.34;4213735;83;28506;-85
2021/05/15 23:41:29;;;;;;;8.50;5.75;;;;;;;15.20;100.00;98126.22;4251720;81;28470;-83
2021/05/15 23:47:31;;;;;;;6.12;5.10;;;;;;;15.13;100.00;98123.02;4247067;82;28563;-84
2021/05/15 23:53:32;;;;;;;9.58;5.50;;;;;;;15.05;100.00;98114.97;4241335;82;28486;-84
2021/05/15 23:59:34;;;;;;;8.35;5.70;;;;;;;14.98;100.00;98107.71;4234069;82;28515;-85
